createdAt,value
2019-01-28T06:38:19.163Z,13.30
2019-01-28T06:40:48.280Z,14.70
2019-01-28T06:43:16.970Z,14.70
2019-01-28T06:45:45.776Z,14.70
2019-01-28T06:48:14.524Z,14.60
2019-01-28T06:50:43.394Z,14.60
2019-01-28T06:53:12.440Z,14.70
2019-01-28T06:55:41.288Z,14.70
2019-01-28T06:58:10.847Z,14.70
2019-01-28T07:00:39.836Z,14.70
2019-01-28T07:03:09.048Z,14.70
2019-01-28T07:05:38.502Z,14.70
2019-01-28T07:08:07.268Z,14.70
2019-01-28T07:10:36.410Z,14.70
2019-01-28T07:13:05.173Z,14.80
2019-01-28T07:15:35.402Z,14.90
2019-01-28T07:18:04.207Z,15.10
2019-01-28T07:20:33.332Z,15.20
2019-01-28T07:23:02.266Z,15.30
2019-01-28T07:25:31.100Z,15.50
2019-01-28T07:28:00.732Z,15.60
2019-01-28T07:30:32.314Z,15.80
2019-01-28T07:33:01.741Z,15.90
2019-01-28T07:35:31.189Z,16.00
2019-01-28T07:38:00.006Z,16.10
2019-01-28T07:40:28.819Z,16.20
2019-01-28T07:42:58.256Z,16.40
2019-01-28T07:45:29.373Z,16.50
2019-01-28T07:48:03.042Z,16.60
2019-01-28T07:50:28.191Z,16.80
2019-01-28T07:52:58.190Z,16.90
2019-01-28T07:55:27.369Z,17.00
2019-01-28T07:57:56.174Z,17.10
2019-01-28T08:00:28.078Z,17.20
2019-01-28T08:02:57.884Z,17.30
2019-01-28T08:05:26.737Z,17.40
2019-01-28T08:07:55.481Z,17.50
2019-01-28T08:10:24.814Z,17.60
2019-01-28T08:12:53.948Z,17.60
2019-01-28T08:15:23.596Z,17.70
2019-01-28T08:17:52.638Z,17.80
2019-01-28T08:20:21.548Z,17.90
2019-01-28T08:22:50.758Z,18.00
2019-01-28T08:25:20.238Z,18.10
2019-01-28T08:27:48.983Z,18.20
2019-01-28T08:30:21.504Z,18.20
2019-01-28T08:32:50.231Z,18.30
2019-01-28T08:35:20.072Z,18.40
2019-01-28T08:37:49.241Z,18.50
2019-01-28T08:40:18.386Z,18.50
2019-01-28T08:42:48.254Z,18.60
2019-01-28T08:45:17.335Z,18.60
2019-01-28T08:47:46.439Z,18.70
2019-01-28T08:50:18.056Z,18.80
2019-01-28T08:52:46.896Z,18.80
2019-01-28T08:55:17.916Z,18.90
2019-01-28T08:57:47.581Z,18.90
2019-01-28T09:00:24.965Z,19.00
2019-01-28T09:02:54.413Z,19.00
2019-01-28T09:05:23.531Z,19.00
2019-01-28T09:07:52.308Z,19.00
2019-01-28T09:10:22.653Z,19.10
2019-01-28T09:12:51.608Z,19.10
2019-01-28T09:15:20.825Z,19.00
2019-01-28T09:17:49.604Z,19.00
2019-01-28T09:20:19.971Z,19.00
2019-01-28T09:22:49.161Z,19.00
2019-01-28T09:25:18.339Z,18.90
2019-01-28T09:27:47.445Z,18.90
2019-01-28T09:30:20.281Z,18.80
2019-01-28T09:32:51.190Z,18.80
2019-01-28T09:35:20.336Z,18.80
2019-01-28T09:37:50.488Z,18.80
2019-01-28T09:40:20.799Z,18.70
2019-01-28T09:42:50.006Z,18.70
2019-01-28T09:45:22.147Z,18.60
2019-01-28T09:47:51.033Z,18.60
2019-01-28T09:50:20.231Z,18.50
2019-01-28T09:52:49.239Z,18.40
2019-01-28T09:55:18.551Z,18.40
2019-01-28T09:57:47.684Z,18.40
2019-01-28T10:00:21.260Z,18.30
2019-01-28T10:02:50.274Z,18.20
2019-01-28T10:05:19.148Z,18.20
2019-01-28T10:07:48.276Z,18.10
2019-01-28T10:10:18.625Z,18.00
2019-01-28T10:12:47.856Z,18.00
2019-01-28T10:15:20.167Z,17.90
2019-01-28T10:17:50.024Z,17.80
2019-01-28T10:20:23.203Z,17.80
2019-01-28T10:22:52.173Z,17.80
2019-01-28T10:25:21.266Z,17.80
2019-01-28T10:27:51.376Z,17.70
2019-01-28T10:30:23.386Z,17.70
2019-01-28T10:32:52.226Z,17.60
2019-01-28T10:35:21.091Z,17.60
2019-01-28T10:37:50.036Z,17.50
2019-01-28T10:40:22.387Z,17.50
2019-01-28T10:42:53.700Z,17.50
2019-01-28T10:45:22.516Z,17.50
2019-01-28T10:47:51.647Z,17.50
2019-01-28T10:50:20.256Z,17.50
2019-01-28T10:52:49.091Z,17.50
2019-01-28T10:55:18.876Z,17.50
2019-01-28T10:57:48.022Z,17.50
2019-01-28T11:00:20.680Z,17.50
2019-01-28T11:02:49.528Z,17.50
2019-01-28T11:05:18.422Z,17.50
2019-01-28T11:07:47.556Z,17.50
2019-01-28T11:10:17.964Z,17.50
2019-01-28T11:12:48.600Z,17.50
2019-01-28T11:15:20.896Z,17.50
2019-01-28T11:17:50.032Z,17.60
2019-01-28T11:20:19.990Z,17.60
2019-01-28T11:22:49.553Z,17.60
2019-01-28T11:25:21.599Z,17.60
2019-01-28T11:27:50.947Z,17.50
2019-01-28T11:30:22.330Z,17.50
2019-01-28T11:32:51.312Z,17.60
2019-01-28T11:35:20.313Z,17.60
2019-01-28T11:37:49.586Z,17.60
2019-01-28T11:40:18.391Z,17.60
2019-01-28T11:42:47.809Z,17.60
2019-01-28T11:45:22.798Z,17.70
2019-01-28T11:47:53.310Z,17.60
2019-01-28T11:50:23.621Z,17.70
2019-01-28T11:52:52.866Z,17.70
2019-01-28T11:55:22.293Z,17.60
2019-01-28T11:57:51.751Z,17.60
2019-01-28T12:00:24.088Z,17.60
2019-01-28T12:02:54.299Z,17.60
2019-01-28T12:05:23.715Z,17.60
2019-01-28T12:07:54.384Z,17.60
2019-01-28T12:10:23.181Z,17.60
2019-01-28T12:12:53.057Z,17.50
2019-01-28T12:15:22.498Z,17.50
2019-01-28T12:17:51.575Z,17.50
2019-01-28T12:20:20.967Z,17.50
2019-01-28T12:22:50.113Z,17.40
2019-01-28T12:25:19.635Z,17.40
2019-01-28T12:27:49.145Z,17.40
2019-01-28T12:30:21.836Z,17.40
2019-01-28T12:32:51.462Z,17.40
2019-01-28T12:35:20.835Z,17.40
2019-01-28T12:37:50.575Z,17.40
2019-01-28T12:40:20.856Z,17.40
2019-01-28T12:42:49.810Z,17.30
2019-01-28T12:45:19.863Z,17.30
2019-01-28T12:47:48.784Z,17.30
2019-01-28T12:50:18.016Z,17.30
2019-01-28T12:52:49.195Z,17.40
2019-01-28T12:55:18.640Z,17.40
2019-01-28T12:57:47.772Z,17.40
2019-01-28T13:00:21.635Z,17.40
2019-01-28T13:02:50.516Z,17.40
2019-01-28T13:05:20.672Z,17.40
2019-01-28T13:07:49.488Z,17.40
2019-01-28T13:10:20.440Z,17.40
2019-01-28T13:12:51.011Z,17.50
2019-01-28T13:15:23.046Z,17.50
2019-01-28T13:17:52.782Z,17.50
2019-01-28T13:20:22.217Z,17.50
2019-01-28T13:22:51.056Z,17.50
2019-01-28T13:25:20.433Z,17.60
2019-01-28T13:27:51.035Z,17.60
2019-01-28T13:30:22.410Z,17.70
2019-01-28T13:32:52.351Z,17.70
2019-01-28T13:35:21.191Z,17.70
2019-01-28T13:37:50.211Z,17.70
2019-01-28T13:40:20.193Z,17.80
2019-01-28T13:42:49.566Z,17.80
2019-01-28T13:45:22.346Z,18.00
2019-01-28T13:47:51.192Z,18.10
2019-01-28T13:50:21.728Z,18.20
2019-01-28T13:52:50.916Z,18.30
2019-01-28T13:55:20.279Z,18.50
2019-01-28T13:57:49.559Z,18.60
2019-01-28T14:00:20.757Z,18.70
2019-01-28T14:02:52.443Z,18.80
2019-01-28T14:05:21.916Z,18.90
2019-01-28T14:07:51.127Z,19.00
2019-01-28T14:10:20.350Z,19.20
2019-01-28T14:12:49.195Z,19.20
2019-01-28T14:15:21.413Z,19.40
2019-01-28T14:17:50.491Z,19.40
2019-01-28T14:20:19.987Z,19.50
2019-01-28T14:25:18.067Z,19.70
2019-01-28T14:27:49.743Z,19.70
2019-01-28T14:30:21.699Z,19.80
2019-01-28T14:32:51.176Z,19.90
2019-01-28T14:35:20.371Z,19.90
2019-01-28T14:37:49.235Z,20.00
2019-01-28T14:40:19.996Z,20.00
2019-01-28T14:42:49.093Z,20.00
2019-01-28T14:45:18.608Z,20.10
2019-01-28T14:47:49.810Z,20.10
2019-01-28T14:50:23.146Z,20.10
2019-01-28T14:52:53.287Z,20.10
2019-01-28T14:57:51.842Z,20.10
2019-01-28T15:00:23.416Z,20.10
2019-01-28T15:02:53.788Z,20.10
2019-01-28T15:05:22.860Z,20.10
2019-01-28T15:07:52.075Z,20.10
2019-01-28T15:10:21.328Z,20.10
2019-01-28T15:12:50.521Z,20.10
2019-01-28T15:15:23.787Z,20.10
2019-01-28T15:17:52.789Z,20.10
2019-01-28T15:20:22.256Z,20.00
2019-01-28T15:22:51.733Z,20.00
2019-01-28T15:25:21.687Z,19.90
2019-01-28T15:27:50.843Z,19.90
2019-01-28T15:30:21.955Z,19.90
2019-01-28T15:32:51.960Z,19.80
2019-01-28T15:35:21.399Z,19.80
2019-01-28T15:37:50.239Z,19.70
2019-01-28T15:40:21.623Z,19.70
2019-01-28T15:42:51.023Z,19.60
2019-01-28T15:45:22.648Z,19.60
2019-01-28T15:47:52.165Z,19.50
2019-01-28T15:50:21.306Z,19.50
2019-01-28T15:52:51.187Z,19.40
2019-01-28T15:55:23.496Z,19.40
2019-01-28T15:57:52.391Z,19.30
2019-01-28T16:00:23.705Z,19.30
2019-01-28T16:02:52.717Z,19.20
2019-01-28T16:05:21.840Z,19.20
2019-01-28T16:07:51.148Z,19.10
2019-01-28T16:10:20.568Z,19.10
2019-01-28T16:12:50.172Z,19.00
2019-01-28T16:15:21.835Z,19.00
2019-01-28T16:17:51.020Z,18.90
2019-01-28T16:20:20.675Z,18.80
2019-01-28T16:22:49.733Z,18.80
2019-01-28T16:25:18.683Z,18.80
2019-01-28T16:27:48.866Z,18.70
2019-01-28T16:30:26.111Z,18.70
2019-01-28T16:32:49.897Z,18.70
2019-01-28T16:35:19.595Z,18.60
2019-01-28T16:37:48.593Z,18.60
2019-01-28T16:40:19.035Z,18.60
2019-01-28T16:42:48.333Z,18.60
2019-01-28T16:45:17.609Z,18.60
2019-01-28T16:47:46.721Z,18.50
2019-01-28T16:50:26.525Z,18.50
2019-01-28T16:52:49.744Z,18.40
2019-01-28T16:55:19.179Z,18.40
2019-01-28T16:57:48.456Z,18.40
2019-01-28T17:00:21.202Z,18.40
2019-01-28T17:02:52.285Z,18.40
2019-01-28T17:05:21.541Z,18.30
2019-01-28T17:07:50.419Z,18.40
2019-01-28T17:10:19.229Z,18.30
2019-01-28T17:12:49.065Z,18.30
2019-01-28T17:15:18.248Z,18.20
2019-01-28T17:17:48.305Z,18.20
2019-01-28T17:20:20.743Z,18.10
2019-01-28T17:22:50.135Z,18.10
2019-01-28T17:25:23.606Z,18.10
2019-01-28T17:27:53.777Z,18.10
2019-01-28T17:30:34.788Z,18.00
2019-01-28T17:33:03.819Z,18.00
2019-01-28T17:35:33.557Z,18.00
2019-01-28T17:38:06.388Z,17.90
2019-01-28T17:40:36.227Z,17.90
2019-01-28T17:43:05.596Z,17.90
2019-01-28T17:45:35.099Z,17.90
2019-01-28T17:48:04.031Z,17.80
2019-01-28T17:50:33.346Z,17.80
2019-01-28T17:53:03.335Z,17.80
2019-01-28T17:55:35.752Z,17.80
2019-01-28T17:58:05.760Z,17.70
2019-01-28T18:00:39.046Z,17.70
2019-01-28T18:03:08.072Z,17.70
2019-01-28T18:05:36.846Z,17.70
2019-01-28T18:08:06.315Z,17.60
2019-01-28T18:10:36.349Z,17.60
2019-01-28T18:13:06.260Z,17.60
2019-01-28T18:15:35.448Z,17.60
2019-01-28T18:18:04.573Z,17.50
2019-01-28T18:20:33.579Z,17.50
2019-01-28T18:23:02.447Z,17.50
2019-01-28T18:25:32.871Z,17.50
2019-01-28T18:28:02.275Z,17.40
2019-01-28T18:30:39.480Z,17.40
2019-01-28T18:33:09.031Z,17.40
2019-01-28T18:35:37.975Z,17.40
2019-01-28T18:38:07.202Z,17.30
2019-01-28T18:40:37.186Z,17.30
2019-01-28T18:43:06.793Z,17.30
2019-01-28T18:45:35.895Z,17.30
2019-01-28T18:48:05.944Z,17.30
2019-01-28T18:50:35.889Z,17.30
2019-01-28T18:53:05.074Z,17.20
2019-01-28T18:55:34.069Z,17.20
2019-01-28T18:58:03.077Z,17.20
2019-01-28T19:00:31.840Z,17.20
2019-01-28T19:03:00.866Z,17.20
2019-01-28T19:05:55.226Z,17.20
2019-01-28T19:08:43.556Z,17.30
2019-01-28T19:11:19.787Z,17.30
2019-01-28T19:13:53.187Z,17.30
2019-01-28T19:16:28.508Z,17.30
2019-01-28T19:19:38.637Z,17.30
2019-01-28T19:22:08.182Z,17.30
2019-01-28T19:24:37.759Z,17.30
2019-01-28T19:27:07.374Z,17.30
2019-01-28T19:29:36.539Z,17.30
2019-01-28T19:32:05.967Z,17.30
2019-01-28T19:34:36.612Z,17.30
2019-01-28T19:37:06.871Z,17.30
2019-01-28T19:39:36.134Z,17.40
2019-01-28T19:42:05.337Z,17.40
2019-01-28T19:44:35.755Z,17.40
2019-01-28T19:49:36.827Z,17.40
2019-01-28T19:52:06.447Z,17.40
2019-01-28T19:54:36.219Z,17.40
2019-01-28T19:57:07.031Z,17.40
2019-01-28T19:59:35.768Z,17.40
2019-01-28T20:02:05.036Z,17.40
2019-01-28T20:04:34.460Z,17.40
2019-01-28T20:07:04.136Z,17.40
2019-01-28T20:09:35.012Z,17.50
2019-01-28T20:12:04.177Z,17.50
2019-01-28T20:14:33.614Z,17.50
2019-01-28T20:17:02.911Z,17.50
2019-01-28T20:19:31.663Z,17.50
2019-01-28T20:22:00.771Z,17.60
2019-01-28T20:24:32.596Z,17.60
2019-01-28T20:27:01.725Z,17.60
2019-01-28T20:29:31.085Z,17.60
2019-01-28T20:31:59.796Z,17.60
2019-01-28T20:34:29.899Z,17.60
2019-01-28T20:36:59.472Z,17.60
2019-01-28T20:39:29.028Z,17.70
2019-01-28T20:41:58.229Z,17.60
2019-01-28T20:44:27.776Z,17.70
2019-01-28T20:46:57.990Z,17.70
2019-01-28T20:49:27.220Z,17.70
2019-01-28T20:51:56.399Z,17.70
2019-01-28T20:54:25.978Z,17.70
2019-01-28T20:57:01.662Z,17.80
2019-01-28T20:59:32.185Z,17.80
2019-01-28T21:02:01.942Z,17.90
2019-01-28T21:04:31.153Z,17.90
2019-01-28T21:07:01.225Z,17.90
2019-01-28T21:09:32.085Z,17.90
2019-01-28T21:12:01.511Z,17.90
2019-01-28T21:14:31.071Z,17.90
2019-01-28T21:17:00.636Z,17.90
2019-01-28T21:19:30.283Z,18.00
2019-01-28T21:22:00.037Z,17.90
2019-01-28T21:26:58.329Z,18.00
2019-01-28T21:29:29.256Z,18.00
2019-01-28T21:34:27.455Z,18.10
2019-01-28T21:37:02.333Z,18.10
2019-01-28T21:39:32.977Z,18.00
2019-01-28T21:42:02.570Z,18.10
2019-01-28T21:44:31.778Z,18.10
2019-01-28T21:47:01.414Z,18.10
2019-01-28T21:49:30.872Z,18.10
2019-01-28T21:51:59.744Z,18.10
2019-01-28T21:54:30.825Z,18.10
